Time;durP1;ratioP1;P1;durP2;ratioP2;P2;SDS_P1;SDS_P2;PMS_P1;PMS_P2;Temp;Humidity;BMP_temperature;BMP_pressure;BME280_temperature;BME280_humidity;BME280_pressure;Samples;Min_cycle;Max_cycle;Signal;HPM_P1;HPM_P2
2022/05/20 00:00:28;;;;;;;5.85;4.53;;;;;;;14.49;55.24;100542.81;5052742;28;20446;-56
2022/05/20 00:02:57;;;;;;;8.93;4.67;;;;;;;14.54;55.54;100545.47;5053763;28;20257;-56
2022/05/20 00:05:24;;;;;;;4.77;3.20;;;;;;;14.50;55.77;100543.69;5053221;28;20226;-55
2022/05/20 00:07:51;;;;;;;5.17;3.77;;;;;;;14.46;55.92;100549.63;5053269;28;20211;-56
2022/05/20 00:10:18;;;;;;;6.80;3.90;;;;;;;14.45;55.95;100535.81;5053313;28;20200;-56
2022/05/20 00:12:46;;;;;;;4.87;3.90;;;;;;;14.47;55.57;100541.91;5053095;28;20199;-56
2022/05/20 00:15:16;;;;;;;4.22;3.58;;;;;;;14.51;55.51;100537.66;5052768;28;20815;-56
2022/05/20 00:17:43;;;;;;;3.90;3.40;;;;;;;14.48;55.71;100541.06;5053474;28;20223;-56
2022/05/20 00:20:13;;;;;;;5.37;4.77;;;;;;;14.50;56.12;100530.75;5052972;28;20241;-56
2022/05/20 00:22:40;;;;;;;5.83;4.37;;;;;;;14.48;56.41;100537.59;5055483;28;20196;-57
2022/05/20 00:27:52;;;;;;;5.33;4.20;;;;;;;14.29;58.17;100545.84;5053079;28;20294;-57
2022/05/20 00:30:19;;;;;;;4.83;4.37;;;;;;;14.21;58.60;100540.53;5052877;28;20195;-57
2022/05/20 00:32:46;;;;;;;5.13;4.63;;;;;;;14.08;58.66;100510.16;5052995;28;20192;-57
2022/05/20 00:35:15;;;;;;;5.37;4.47;;;;;;;14.20;58.40;100528.47;5052698;28;20560;-56
2022/05/20 00:37:42;;;;;;;8.60;4.33;;;;;;;14.11;57.88;100533.47;5065024;28;20683;-56
2022/05/20 00:40:12;;;;;;;5.57;4.40;;;;;;;14.16;58.61;100539.59;5067463;28;20454;-56
2022/05/20 00:42:39;;;;;;;5.50;3.83;;;;;;;14.15;57.88;100538.72;5062612;28;20658;-57
2022/05/20 00:45:07;;;;;;;4.63;3.57;;;;;;;14.11;56.87;100534.34;5068429;28;20200;-56
2022/05/20 00:47:34;;;;;;;4.20;3.60;;;;;;;14.09;57.09;100536.00;5071725;28;20437;-56
2022/05/20 00:50:05;;;;;;;4.60;3.50;;;;;;;14.08;57.30;100525.66;5066067;28;20207;-56
2022/05/20 00:52:36;;;;;;;4.73;3.33;;;;;;;14.11;57.10;100525.72;5069837;28;20188;-56
2022/05/20 00:55:07;;;;;;;4.93;3.83;;;;;;;14.06;56.99;100528.19;5066177;28;20590;-57
2022/05/20 00:57:39;;;;;;;3.77;3.47;;;;;;;13.81;57.46;100474.34;5071170;28;20189;-57
2022/05/20 01:00:12;;;;;;;3.53;3.23;;;;;;;14.02;57.48;100523.81;5071962;28;20303;-56
2022/05/20 01:02:39;;;;;;;3.93;3.63;;;;;;;13.96;57.91;100528.88;5071952;28;20199;-56
2022/05/20 01:05:14;;;;;;;6.25;4.88;;;;;;;13.99;58.88;100535.81;5071459;28;20434;-56
2022/05/20 01:07:43;;;;;;;4.60;4.10;;;;;;;14.05;58.53;100530.75;5072494;28;20222;-56
2022/05/20 01:10:11;;;;;;;4.10;3.60;;;;;;;14.00;58.54;100532.41;5072192;28;20575;-56
2022/05/20 01:12:38;;;;;;;5.60;3.83;;;;;;;13.99;59.38;100536.69;5071274;28;20445;-56
2022/05/20 01:15:05;;;;;;;5.33;4.10;;;;;;;13.60;58.97;100472.19;5071805;28;20217;-56
2022/05/20 01:17:32;;;;;;;4.20;3.80;;;;;;;13.97;59.27;100538.38;5072206;28;20197;-56
2022/05/20 01:19:59;;;;;;;6.40;4.20;;;;;;;13.91;59.33;100535.66;5072170;28;20574;-56
2022/05/20 01:22:29;;;;;;;5.83;5.17;;;;;;;13.93;59.08;100538.25;5071967;28;20191;-56
2022/05/20 01:24:57;;;;;;;6.23;3.97;;;;;;;13.83;59.67;100538.94;5071958;28;20193;-56
2022/05/20 01:27:24;;;;;;;5.85;5.10;;;;;;;13.74;60.41;100533.56;5071506;28;20982;-56
2022/05/20 01:29:51;;;;;;;8.10;4.60;;;;;;;13.68;60.13;100528.31;5072040;28;20194;-56
2022/05/20 01:32:18;;;;;;;5.80;5.00;;;;;;;13.64;60.13;100537.69;5071642;28;20206;-56
2022/05/20 01:34:45;;;;;;;7.30;5.17;;;;;;;13.53;60.77;100537.47;5071812;28;20200;-56
2022/05/20 01:37:12;;;;;;;5.43;4.17;;;;;;;13.48;60.21;100543.38;5071559;28;20195;-56
2022/05/20 01:39:39;;;;;;;12.37;5.07;;;;;;;13.46;60.49;100545.91;5071325;28;20232;-57
2022/05/20 01:42:13;;;;;;;5.97;4.67;;;;;;;13.44;60.38;100545.03;5071471;28;20227;-57
2022/05/20 01:44:44;;;;;;;4.27;3.87;;;;;;;13.36;60.63;100544.00;5071756;28;20192;-57
2022/05/20 01:47:17;;;;;;;6.83;4.53;;;;;;;13.31;60.91;100548.19;5071380;28;20697;-57
2022/05/20 01:49:52;;;;;;;6.27;4.10;;;;;;;13.27;61.04;100551.53;5071565;28;20193;-57
2022/05/20 01:52:24;;;;;;;6.00;4.20;;;;;;;13.25;61.09;100548.03;5070449;28;20537;-57
2022/05/20 01:55:00;;;;;;;4.50;4.07;;;;;;;13.30;60.71;100553.31;5071389;28;20215;-57
2022/05/20 01:57:34;;;;;;;6.40;4.33;;;;;;;13.18;61.07;100546.19;5071399;28;20193;-57
2022/05/20 02:00:07;;;;;;;4.77;4.27;;;;;;;13.21;61.27;100551.38;5070375;28;20525;-57
2022/05/20 02:02:40;;;;;;;4.93;3.70;;;;;;;13.18;60.61;100561.66;5071189;28;20192;-56
2022/05/20 02:05:14;;;;;;;4.70;3.17;;;;;;;13.09;60.55;100563.16;5071000;28;20176;-56
2022/05/20 02:07:45;;;;;;;4.67;3.13;;;;;;;13.00;61.00;100556.03;5071005;28;20198;-56
2022/05/20 02:10:19;;;;;;;4.40;2.70;;;;;;;12.96;60.60;100549.06;5071056;28;20192;-56
2022/05/20 02:12:51;;;;;;;3.67;3.37;;;;;;;12.88;59.26;100553.19;5070817;28;20199;-56
2022/05/20 02:15:22;;;;;;;3.47;2.90;;;;;;;12.77;60.09;100545.16;5070509;28;20445;-56
2022/05/20 02:17:56;;;;;;;3.33;3.00;;;;;;;12.78;60.36;100546.91;5071156;28;20191;-56
2022/05/20 02:20:28;;;;;;;3.27;2.43;;;;;;;12.87;59.91;100543.69;5071029;28;20192;-56
2022/05/20 02:23:01;;;;;;;3.00;2.70;;;;;;;12.91;59.06;100543.78;5070991;28;20440;-56
2022/05/20 02:25:32;;;;;;;4.30;3.10;;;;;;;12.98;59.11;100542.22;5070692;28;20188;-56
2022/05/20 02:28:04;;;;;;;3.17;2.47;;;;;;;12.97;58.79;100548.22;5070569;28;20198;-56
2022/05/20 02:30:34;;;;;;;4.43;2.90;;;;;;;12.98;58.92;100540.53;5070847;28;20245;-56
2022/05/20 02:33:06;;;;;;;4.13;2.70;;;;;;;12.99;58.42;100555.16;5070526;28;20199;-56
2022/05/20 02:35:34;;;;;;;3.77;2.43;;;;;;;13.03;57.35;100548.38;5070441;28;20594;-56
2022/05/20 02:38:09;;;;;;;4.83;2.80;;;;;;;13.03;57.63;100553.53;5070369;28;20192;-56
2022/05/20 02:40:38;;;;;;;4.23;2.47;;;;;;;12.85;57.49;100530.78;5069562;28;20444;-56
2022/05/20 02:43:06;;;;;;;2.87;2.67;;;;;;;13.06;57.39;100544.97;5070150;28;20434;-56
2022/05/20 02:45:34;;;;;;;5.93;2.80;;;;;;;13.06;57.44;100551.00;5070316;28;20189;-56
2022/05/20 02:48:00;;;;;;;3.65;3.10;;;;;;;13.15;58.04;100546.09;5069905;28;20442;-56
2022/05/20 02:50:27;;;;;;;5.63;2.80;;;;;;;13.11;58.39;100538.25;5070383;28;20195;-56
2022/05/20 02:52:54;;;;;;;6.03;3.53;;;;;;;13.18;58.88;100540.13;5070058;28;20202;-56
2022/05/20 02:55:21;;;;;;;6.33;3.03;;;;;;;13.16;58.57;100547.00;5070263;28;20627;-56
2022/05/20 02:57:48;;;;;;;4.13;3.00;;;;;;;13.08;57.95;100536.47;5070170;28;20196;-56
2022/05/20 03:05:45;;;;;;;3.97;3.03;;;;;;;13.18;58.45;100533.28;5069013;28;20417;-56
2022/05/20 03:08:13;;;;;;;3.30;3.00;;;;;;;13.28;58.28;100532.63;5070038;28;20188;-56
2022/05/20 03:10:40;;;;;;;3.83;2.80;;;;;;;13.30;58.23;100551.59;5070003;28;20202;-56
2022/05/20 03:13:08;;;;;;;4.13;2.72;;;;;;;13.47;56.98;100545.09;5069210;28;20433;-57
2022/05/20 03:15:37;;;;;;;3.50;2.63;;;;;;;13.51;56.13;100539.16;5069878;28;20305;-57
2022/05/20 03:18:05;;;;;;;3.00;2.70;;;;;;;13.59;56.66;100544.50;5069791;28;20283;-57
2022/05/20 03:20:32;;;;;;;3.37;2.90;;;;;;;13.57;56.81;100538.41;5070045;28;20657;-57
2022/05/20 03:22:59;;;;;;;3.03;2.73;;;;;;;13.59;57.21;100544.50;5070345;28;20725;-57
2022/05/20 03:25:26;;;;;;;3.57;2.73;;;;;;;13.65;57.03;100544.63;5073262;28;20609;-57
2022/05/20 03:27:53;;;;;;;4.87;2.93;;;;;;;13.60;57.46;100551.38;5073960;28;20202;-56
2022/05/20 03:30:20;;;;;;;4.90;2.80;;;;;;;13.35;58.00;100546.56;5074052;28;20203;-57
2022/05/20 03:32:48;;;;;;;3.27;2.97;;;;;;;13.29;58.41;100551.56;5073878;28;20217;-57
2022/05/20 03:35:15;;;;;;;6.13;3.00;;;;;;;13.21;59.27;100548.81;5073908;28;20199;-57
2022/05/20 03:37:42;;;;;;;4.85;3.30;;;;;;;13.22;58.72;100547.09;5072678;28;20937;-57
2022/05/20 03:40:10;;;;;;;4.93;3.23;;;;;;;13.22;59.16;100547.09;5073902;28;20227;-57
2022/05/20 03:42:37;;;;;;;8.27;3.23;;;;;;;13.30;59.23;100555.88;5073966;28;20195;-57
2022/05/20 03:45:05;;;;;;;7.33;3.80;;;;;;;13.39;58.97;100556.97;5073957;28;20195;-57
2022/05/20 03:47:32;;;;;;;5.40;3.30;;;;;;;13.40;58.96;100561.31;5073612;28;20227;-57
2022/05/20 03:50:00;;;;;;;4.03;3.67;;;;;;;13.38;59.17;100568.13;5073974;28;20593;-57
2022/05/20 03:52:27;;;;;;;5.07;3.05;;;;;;;13.32;58.93;100560.22;5073735;28;20444;-57
2022/05/20 03:54:54;;;;;;;6.10;3.77;;;;;;;13.38;59.15;100556.91;5073867;28;20628;-57
2022/05/20 03:57:21;;;;;;;4.57;3.30;;;;;;;13.40;59.09;100558.72;5073434;28;20694;-57
2022/05/20 03:59:48;;;;;;;4.28;3.88;;;;;;;13.42;59.57;100559.63;5073585;28;20430;-58
2022/05/20 04:02:14;;;;;;;3.90;3.43;;;;;;;13.37;59.17;100553.50;5073772;28;20207;-57
2022/05/20 04:04:43;;;;;;;6.20;4.03;;;;;;;13.48;59.36;100566.63;5073636;28;20199;-57
2022/05/20 04:07:14;;;;;;;5.80;3.80;;;;;;;13.48;59.32;100559.75;5073372;28;20184;-58
2022/05/20 04:09:41;;;;;;;6.23;3.57;;;;;;;13.63;59.23;100563.47;5073399;28;20652;-57
2022/05/20 04:12:14;;;;;;;5.97;3.23;;;;;;;13.56;58.67;100555.63;5073437;28;20206;-56
2022/05/20 04:14:41;;;;;;;4.30;3.53;;;;;;;13.67;59.08;100566.19;5072903;28;20193;-56
2022/05/20 04:17:08;;;;;;;4.30;3.90;;;;;;;13.73;58.72;100570.59;5073156;28;20204;-56
2022/05/20 04:19:36;;;;;;;7.73;3.63;;;;;;;13.77;58.41;100578.44;5072318;28;20199;-57
2022/05/20 04:22:08;;;;;;;7.27;3.87;;;;;;;13.84;57.43;100569.13;5072881;28;20250;-56
2022/05/20 04:24:37;;;;;;;5.60;3.80;;;;;;;13.83;56.60;100568.22;5072330;28;20442;-56
2022/05/20 04:27:04;;;;;;;4.77;4.20;;;;;;;13.93;56.20;100567.56;5072985;28;20193;-57
2022/05/20 04:29:31;;;;;;;6.30;3.80;;;;;;;14.04;56.17;100571.22;5072928;28;20214;-57
2022/05/20 04:31:58;;;;;;;4.97;3.57;;;;;;;14.09;54.79;100579.09;5072907;28;20195;-57
2022/05/20 04:34:25;;;;;;;4.90;3.47;;;;;;;14.11;54.94;100577.41;5072648;28;20217;-57
2022/05/20 04:36:52;;;;;;;5.80;3.90;;;;;;;14.12;55.15;100573.94;5071464;28;20217;-57
2022/05/20 04:39:19;;;;;;;9.40;3.47;;;;;;;14.16;55.26;100575.78;5072334;28;20246;-56
2022/05/20 04:47:21;;;;;;;7.43;3.97;;;;;;;14.48;54.86;100584.13;5072520;28;20199;-56
2022/05/20 04:49:48;;;;;;;9.38;3.95;;;;;;;14.55;54.69;100583.44;5071835;28;20433;-57
2022/05/20 04:52:15;;;;;;;4.83;3.63;;;;;;;14.67;54.51;100589.66;5072264;28;20205;-56
2022/05/20 04:54:50;;;;;;;6.27;3.80;;;;;;;14.80;53.96;100590.75;5066657;28;20198;-58
2022/05/20 04:57:31;;;;;;;3.60;3.30;;;;;;;14.86;53.95;100588.25;5080704;28;20220;-57
2022/05/20 05:00:00;;;;;;;6.87;3.53;;;;;;;14.77;54.13;100554.50;5072476;28;20590;-58
2022/05/20 05:02:28;;;;;;;4.70;3.57;;;;;;;14.96;53.94;100594.47;5068854;28;20189;-57
2022/05/20 05:04:55;;;;;;;5.30;4.13;;;;;;;14.98;54.07;100595.34;5071293;28;20946;-58
2022/05/20 05:07:22;;;;;;;9.43;3.80;;;;;;;15.03;54.14;100597.16;5071792;28;20578;-57
2022/05/20 05:09:49;;;;;;;6.63;3.47;;;;;;;15.03;53.97;100592.00;5071494;28;20666;-57
2022/05/20 05:12:17;;;;;;;6.82;3.60;;;;;;;15.03;54.22;100597.16;5071373;28;20444;-61
2022/05/20 05:14:47;;;;;;;4.20;3.80;;;;;;;15.13;54.21;100598.19;5071766;28;20664;-58
2022/05/20 05:18:09;;;;;;;7.13;3.80;;;;;;;15.27;54.33;100597.53;5071919;28;20269;-58
2022/05/20 05:20:06;;;;;;;9.53;3.57;;;;;;;15.43;53.94;100590.88;5071638;28;20191;-57
2022/05/20 05:22:33;;;;;;;6.83;3.90;;;;;;;15.58;53.34;100591.13;5071722;28;20192;-57
2022/05/20 05:25:00;;;;;;;7.35;4.10;;;;;;;15.77;53.27;100593.09;5071182;28;21009;-57
2022/05/20 05:27:26;;;;;;;5.23;3.67;;;;;;;15.92;51.86;100593.31;5071751;28;20655;-57
2022/05/20 05:29:55;;;;;;;5.97;3.47;;;;;;;16.02;51.66;100599.44;5071444;28;20194;-58
2022/05/20 05:32:21;;;;;;;3.87;3.33;;;;;;;16.02;52.12;100599.44;5071015;28;20188;-57
2022/05/20 05:34:48;;;;;;;6.85;3.97;;;;;;;16.13;52.14;100596.97;5070551;28;20438;-57
2022/05/20 05:37:15;;;;;;;7.50;4.27;;;;;;;16.25;52.09;100604.91;5071320;28;20214;-57
2022/05/20 05:39:42;;;;;;;6.80;3.47;;;;;;;16.30;51.90;100598.03;5070870;28;20270;-56
2022/05/20 05:42:09;;;;;;;6.37;3.77;;;;;;;16.40;52.26;100590.38;5071245;28;20666;-56
2022/05/20 05:44:36;;;;;;;4.60;3.23;;;;;;;16.39;51.83;100588.66;5071295;28;20194;-57
2022/05/20 05:47:05;;;;;;;7.47;4.00;;;;;;;16.49;52.54;100587.00;5070902;28;20190;-56
2022/05/20 05:49:32;;;;;;;4.70;4.13;;;;;;;16.53;52.35;100587.06;5071060;28;20203;-57
2022/05/20 05:51:58;;;;;;;3.90;3.60;;;;;;;16.59;52.19;100586.25;5070684;28;20188;-57
2022/05/20 05:54:25;;;;;;;5.93;3.90;;;;;;;16.65;52.73;100595.81;5071245;28;20567;-57
2022/05/20 05:56:52;;;;;;;7.20;3.70;;;;;;;16.69;52.43;100584.63;5070682;28;20563;-56
2022/05/20 05:59:19;;;;;;;4.87;3.67;;;;;;;16.83;52.42;100577.84;5071037;28;20203;-57
2022/05/20 06:01:46;;;;;;;7.63;3.80;;;;;;;17.02;51.70;100584.91;5070879;28;20188;-57
2022/05/20 06:04:14;;;;;;;6.13;3.70;;;;;;;17.10;50.99;100578.91;5070904;28;20460;-56
2022/05/20 06:06:41;;;;;;;7.23;3.80;;;;;;;17.25;50.71;100585.09;5070629;28;20196;-56
2022/05/20 06:09:08;;;;;;;10.37;3.77;;;;;;;17.36;50.61;100568.69;5070713;28;20193;-57
2022/05/20 06:11:35;;;;;;;11.20;4.10;;;;;;;17.44;50.31;100579.13;5070164;28;20453;-57
2022/05/20 06:14:01;;;;;;;10.00;4.13;;;;;;;17.59;50.29;100582.72;5070520;28;20196;-57
2022/05/20 06:16:28;;;;;;;6.83;3.93;;;;;;;17.66;49.64;100575.84;5070164;28;20237;-57
2022/05/20 06:18:55;;;;;;;6.20;3.90;;;;;;;17.76;49.92;100575.00;5070578;28;20267;-57
2022/05/20 06:21:23;;;;;;;5.88;3.90;;;;;;;17.95;49.06;100576.81;5068537;28;20824;-58
2022/05/20 06:23:50;;;;;;;6.27;3.93;;;;;;;18.04;48.55;100582.06;5069414;28;20191;-62
2022/05/20 06:26:17;;;;;;;4.30;3.90;;;;;;;18.14;48.88;100576.00;5069556;28;20191;-62
2022/05/20 06:28:44;;;;;;;3.83;3.53;;;;;;;18.28;49.06;100578.66;5070517;28;20187;-62
2022/05/20 06:31:12;;;;;;;5.23;3.10;;;;;;;18.42;47.46;100582.16;5070118;28;20205;-63
2022/05/20 06:33:39;;;;;;;6.70;3.28;;;;;;;18.52;48.18;100581.31;5069728;28;20457;-64
2022/05/20 06:41:36;;;;;;;6.70;3.70;;;;;;;18.80;46.96;100583.09;5067656;28;21136;-63
2022/05/20 06:44:04;;;;;;;5.03;2.90;;;;;;;18.91;46.37;100577.88;5070339;28;20431;-63
2022/05/20 06:46:30;;;;;;;3.97;3.00;;;;;;;19.05;46.14;100572.66;5075121;28;20574;-62
2022/05/20 06:48:58;;;;;;;6.23;3.03;;;;;;;19.09;46.77;100574.41;5069729;28;20202;-62
2022/05/20 06:51:26;;;;;;;9.20;3.30;;;;;;;19.22;45.64;100577.00;5069793;28;20194;-62
2022/05/20 06:53:56;;;;;;;7.32;3.08;;;;;;;19.28;44.04;100569.16;5069463;28;20468;-63
2022/05/20 06:56:25;;;;;;;6.17;3.37;;;;;;;19.34;44.43;100568.25;5072346;28;20681;-62
2022/05/20 06:58:53;;;;;;;6.77;3.53;;;;;;;19.46;45.43;100570.88;5065338;28;20999;-63
2022/05/20 07:01:20;;;;;;;3.20;2.93;;;;;;;19.60;43.77;100568.25;5069692;28;20190;-63
2022/05/20 07:03:47;;;;;;;3.80;3.03;;;;;;;19.65;44.53;100566.47;5069555;28;20573;-63
2022/05/20 07:06:15;;;;;;;5.47;4.03;;;;;;;19.79;43.44;100565.56;5069086;28;20448;-62
2022/05/20 07:08:43;;;;;;;3.67;3.20;;;;;;;19.91;43.36;100575.09;5069426;28;20192;-63
2022/05/20 07:11:11;;;;;;;5.75;3.55;;;;;;;19.99;43.71;100566.34;5067350;28;20454;-63
2022/05/20 07:13:39;;;;;;;3.23;2.93;;;;;;;19.92;42.41;100529.84;5069479;28;20199;-63
2022/05/20 07:16:06;;;;;;;4.60;3.20;;;;;;;20.21;42.25;100559.28;5069530;28;20187;-62
2022/05/20 07:18:34;;;;;;;7.37;3.20;;;;;;;20.34;42.47;100552.25;5069626;28;20222;-63
2022/05/20 07:21:01;;;;;;;7.30;3.40;;;;;;;20.47;42.18;100548.69;5069660;28;20428;-62
2022/05/20 07:23:29;;;;;;;5.13;3.37;;;;;;;20.54;42.56;100548.66;5069383;28;20187;-63
2022/05/20 07:25:56;;;;;;;4.20;3.27;;;;;;;20.68;41.09;100548.53;5069434;28;20187;-63
2022/05/20 07:28:25;;;;;;;5.40;2.70;;;;;;;20.75;39.60;100547.59;5061143;28;20200;-63
2022/05/20 07:30:52;;;;;;;3.13;2.60;;;;;;;20.85;38.09;100545.78;5056933;28;20498;-63
2022/05/20 07:33:19;;;;;;;6.03;2.90;;;;;;;21.06;38.33;100554.31;5069611;28;20313;-62
2022/05/20 07:35:46;;;;;;;2.20;2.00;;;;;;;21.17;35.17;100551.63;5069337;28;20187;-64
2022/05/20 07:38:14;;;;;;;4.40;2.10;;;;;;;21.15;34.38;100541.16;5069614;28;20215;-63
2022/05/20 07:40:43;;;;;;;2.77;2.13;;;;;;;21.29;35.85;100548.00;5069437;28;20219;-63
2022/05/20 07:43:09;;;;;;;4.60;1.93;;;;;;;20.99;33.95;100494.25;5069645;28;20177;-63
2022/05/20 07:45:38;;;;;;;5.97;2.37;;;;;;;21.27;35.00;100545.41;5069465;28;20202;-62
2022/05/20 07:48:06;;;;;;;3.43;2.40;;;;;;;21.36;34.63;100552.28;5069909;28;20979;-63
2022/05/20 07:50:42;;;;;;;2.43;2.23;;;;;;;21.36;34.46;100553.16;5069569;28;20666;-63
2022/05/20 07:53:21;;;;;;;2.93;1.60;;;;;;;21.38;34.05;100546.16;5069455;28;20192;-63
2022/05/20 07:55:53;;;;;;;3.75;2.50;;;;;;;21.56;34.15;100539.88;5068106;28;20421;-63
2022/05/20 07:58:23;;;;;;;4.10;2.40;;;;;;;21.73;33.37;100540.50;5068968;28;20304;-63
2022/05/20 08:00:52;;;;;;;2.20;2.00;;;;;;;21.76;33.32;100541.34;5069277;28;20200;-63
2022/05/20 08:06:00;;;;;;;5.77;2.60;;;;;;;21.93;32.15;100538.53;5069172;28;20612;-56
2022/05/20 08:08:27;;;;;;;3.37;2.10;;;;;;;22.00;31.55;100544.56;5068696;28;20202;-56
2022/05/20 08:10:54;;;;;;;4.05;1.90;;;;;;;22.01;29.80;100531.44;5070258;28;20993;-57
2022/05/20 08:13:21;;;;;;;2.13;1.80;;;;;;;22.01;31.07;100527.97;5072418;28;20677;-57
2022/05/20 08:15:49;;;;;;;3.37;2.27;;;;;;;22.19;31.43;100527.72;5072652;28;20616;-56
2022/05/20 08:18:17;;;;;;;2.03;1.83;;;;;;;22.31;29.94;100536.25;5072673;28;20219;-56
2022/05/20 08:20:45;;;;;;;4.57;1.83;;;;;;;22.47;28.80;100539.50;5071470;28;20668;-57
2022/05/20 08:23:11;;;;;;;3.30;2.13;;;;;;;22.52;27.76;100521.97;5071164;28;20202;-57
2022/05/20 08:25:38;;;;;;;2.23;1.50;;;;;;;22.50;27.57;100523.72;5071050;28;20195;-57
2022/05/20 08:28:06;;;;;;;3.27;1.57;;;;;;;22.60;27.05;100519.22;5071894;28;20183;-57
2022/05/20 08:30:33;;;;;;;1.70;1.60;;;;;;;22.66;25.98;100508.69;5071712;28;20187;-57
2022/05/20 08:33:00;;;;;;;2.20;1.77;;;;;;;22.74;24.71;100506.78;5072330;28;20191;-57
2022/05/20 08:35:28;;;;;;;1.90;1.80;;;;;;;22.80;26.02;100499.66;5071748;28;20457;-57
2022/05/20 08:37:55;;;;;;;3.40;2.10;;;;;;;22.97;25.52;100496.75;5072231;28;20258;-62
2022/05/20 08:40:26;;;;;;;3.00;1.90;;;;;;;22.99;25.08;100494.13;5072085;28;20231;-64
2022/05/20 08:42:56;;;;;;;2.60;1.80;;;;;;;23.08;26.42;100492.19;5072253;28;20191;-63
2022/05/20 08:45:27;;;;;;;2.80;1.97;;;;;;;23.20;27.04;100488.47;5072217;28;20191;-65
2022/05/20 08:47:55;;;;;;;2.77;1.70;;;;;;;23.28;26.79;100489.19;5063528;28;20245;-64
2022/05/20 08:50:26;;;;;;;2.07;1.70;;;;;;;23.35;26.08;100491.66;5072401;28;20206;-64
2022/05/20 08:52:56;;;;;;;2.00;1.30;;;;;;;23.40;24.91;100487.19;5072232;28;20265;-63
2022/05/20 08:55:24;;;;;;;3.57;2.27;;;;;;;23.41;25.44;100485.44;5072069;28;20187;-65
2022/05/20 08:57:56;;;;;;;2.03;1.80;;;;;;;23.44;25.38;100481.00;5051815;28;20506;-64
2022/05/20 09:00:23;;;;;;;1.83;1.73;;;;;;;23.53;26.04;100477.34;5051642;28;20192;-58
2022/05/20 09:02:50;;;;;;;1.77;1.57;;;;;;;23.55;24.75;100472.91;5051408;28;20196;-58
2022/05/20 09:05:22;;;;;;;1.80;1.60;;;;;;;23.63;25.33;100464.88;5051390;28;20196;-56
2022/05/20 09:08:05;;;;;;;1.60;1.50;;;;;;;23.59;25.56;100465.84;5050707;28;20541;-58
2022/05/20 09:10:35;;;;;;;1.87;1.70;;;;;;;23.59;25.33;100458.84;5051209;28;20196;-58
2022/05/20 09:13:19;;;;;;;2.30;1.63;;;;;;;23.72;26.60;100452.44;5051103;28;20201;-58
2022/05/20 09:15:57;;;;;;;3.60;2.20;;;;;;;23.83;25.76;100466.19;5067783;28;20642;-57
2022/05/20 09:18:34;;;;;;;2.20;2.00;;;;;;;23.75;26.12;100452.38;5069299;28;20315;-57
2022/05/20 09:21:01;;;;;;;2.30;1.73;;;;;;;23.94;25.39;100452.81;5068887;28;20437;-57
2022/05/20 09:23:30;;;;;;;2.10;1.63;;;;;;;24.05;24.88;100450.78;5062418;28;20200;-56
2022/05/20 09:26:04;;;;;;;4.90;1.80;;;;;;;24.07;24.09;100441.97;5052353;28;20223;-58
2022/05/20 09:28:37;;;;;;;3.13;1.73;;;;;;;24.03;24.91;100437.69;5051991;28;20196;-57
2022/05/20 09:31:14;;;;;;;3.47;2.20;;;;;;;24.00;25.51;100434.28;5051361;28;20188;-57
2022/05/20 09:33:48;;;;;;;4.07;1.90;;;;;;;24.16;24.71;100433.06;5050637;28;20188;-57
2022/05/20 09:36:33;;;;;;;3.30;1.83;;;;;;;24.23;24.26;100423.28;5050789;28;20195;-57
2022/05/20 09:39:11;;;;;;;2.07;1.80;;;;;;;24.25;23.90;100422.34;5050698;28;20231;-57
2022/05/20 09:41:49;;;;;;;1.77;1.50;;;;;;;24.37;23.71;100418.50;5051260;28;20663;-59
2022/05/20 09:44:19;;;;;;;1.90;1.80;;;;;;;24.45;23.56;100411.28;5051142;28;20303;-58
2022/05/20 09:46:51;;;;;;;3.60;1.80;;;;;;;24.49;23.07;100405.06;5050835;28;20529;-58
2022/05/20 09:49:39;;;;;;;4.07;2.00;;;;;;;24.51;23.48;100405.88;5050905;28;20193;-63
2022/05/20 09:52:17;;;;;;;1.90;1.77;;;;;;;24.42;24.45;100374.63;5057638;28;20589;-64
2022/05/20 09:54:49;;;;;;;2.40;1.77;;;;;;;24.65;23.94;100404.63;5067031;28;20199;-62
2022/05/20 09:57:23;;;;;;;2.90;1.58;;;;;;;24.81;23.16;100404.25;5066845;28;20932;-64
2022/05/20 09:59:55;;;;;;;2.27;1.67;;;;;;;24.94;22.51;100397.78;5070862;28;20260;-63
2022/05/20 10:02:26;;;;;;;1.87;1.63;;;;;;;25.00;22.83;100400.19;5071099;28;20195;-64
2022/05/20 10:05:01;;;;;;;1.80;1.70;;;;;;;25.06;23.76;100403.53;5071067;28;20203;-64
2022/05/20 10:07:46;;;;;;;3.20;2.35;;;;;;;25.22;22.10;100389.03;5069694;28;20444;-63
2022/05/20 10:10:19;;;;;;;3.20;2.83;;;;;;;25.41;22.78;100384.06;5069236;28;20460;-64
2022/05/20 10:12:50;;;;;;;3.50;2.27;;;;;;;25.59;22.81;100385.34;5067661;28;20202;-63
2022/05/20 10:15:23;;;;;;;2.60;2.03;;;;;;;25.63;21.92;100386.94;5070913;28;20191;-62
2022/05/20 10:18:10;;;;;;;3.33;1.90;;;;;;;25.67;22.03;100384.19;5070379;28;20693;-63
2022/05/20 10:20:43;;;;;;;2.33;2.13;;;;;;;25.76;22.08;100377.78;5069982;28;20858;-58
2022/05/20 10:23:19;;;;;;;2.93;2.37;;;;;;;25.87;22.22;100378.31;5070073;28;20558;-57
2022/05/20 10:25:57;;;;;;;3.73;2.27;;;;;;;25.94;22.13;100371.91;5071323;28;20553;-59
2022/05/20 10:34:10;;;;;;;5.03;1.70;;;;;;;25.73;21.79;100362.06;5066607;28;20240;-57
2022/05/20 10:36:48;;;;;;;2.60;1.90;;;;;;;25.70;21.95;100357.78;5068827;28;20704;-58
2022/05/20 10:39:26;;;;;;;1.80;1.50;;;;;;;25.71;22.25;100353.38;5064751;28;20697;-57
2022/05/20 10:42:13;;;;;;;1.70;1.60;;;;;;;25.48;21.50;100353.22;5069367;28;20514;-57
2022/05/20 10:50:56;;;;;;;3.93;2.07;;;;;;;25.19;21.20;100351.41;5069481;28;20646;-57
2022/05/20 10:53:31;;;;;;;5.47;2.00;;;;;;;25.27;21.32;100340.69;5061500;28;20686;-57
2022/05/20 10:56:14;;;;;;;2.73;1.80;;;;;;;25.54;21.82;100345.13;5066519;28;20199;-57
2022/05/20 10:59:16;;;;;;;4.47;1.50;;;;;;;25.60;21.28;100339.69;5067209;28;20686;-57
2022/05/20 11:01:54;;;;;;;2.00;1.70;;;;;;;25.39;20.93;100340.28;5064600;28;20610;-58
2022/05/20 11:04:50;;;;;;;1.70;1.60;;;;;;;25.42;21.21;100335.81;5049640;28;20188;-58
2022/05/20 11:07:40;;;;;;;3.38;2.00;;;;;;;25.10;21.96;100299.97;5047518;28;20439;-57
2022/05/20 11:10:31;;;;;;;3.87;1.67;;;;;;;25.54;22.24;100329.34;5048731;28;20558;-58
2022/05/20 11:13:05;;;;;;;3.27;2.90;;;;;;;25.90;22.28;100324.66;5049552;28;20555;-58
2022/05/20 11:15:56;;;;;;;6.40;2.30;;;;;;;26.11;22.28;100316.03;5050079;28;20204;-58
2022/05/20 11:18:45;;;;;;;3.67;2.30;;;;;;;26.31;21.92;100319.75;5049549;28;20231;-58
2022/05/20 11:21:27;;;;;;;2.53;1.73;;;;;;;26.33;19.78;100310.00;5049373;28;20201;-57
2022/05/20 11:24:14;;;;;;;3.13;2.00;;;;;;;26.44;19.63;100314.91;5047305;28;20454;-58
2022/05/20 11:26:53;;;;;;;3.07;1.50;;;;;;;26.63;19.80;100302.78;5049457;28;20283;-58
2022/05/20 11:29:43;;;;;;;1.90;1.50;;;;;;;26.61;20.29;100303.75;5049218;28;20184;-58
2022/05/20 11:32:12;;;;;;;2.28;1.80;;;;;;;26.69;20.97;100299.06;5048430;28;20459;-58
2022/05/20 11:35:04;;;;;;;8.60;1.40;;;;;;;26.90;19.07;100295.66;5049069;28;20188;-58
2022/05/20 11:37:50;;;;;;;7.47;2.00;;;;;;;27.02;18.79;100291.69;5049049;28;20196;-63
2022/05/20 11:40:36;;;;;;;3.90;2.10;;;;;;;27.00;19.22;100285.63;5049626;28;20223;-63
2022/05/20 11:43:25;;;;;;;1.70;1.60;;;;;;;27.06;19.20;100285.38;5049650;28;20650;-65
2022/05/20 11:45:59;;;;;;;2.55;1.77;;;;;;;27.03;19.14;100282.88;5051661;28;20227;-64
2022/05/20 11:49:04;;;;;;;3.40;1.85;;;;;;;26.81;19.02;100277.56;5053299;28;20185;-57
2022/05/20 11:51:59;;;;;;;3.03;1.83;;;;;;;26.78;19.78;100272.38;4972223;28;20194;-57
2022/05/20 11:54:33;;;;;;;3.47;2.30;;;;;;;26.88;19.09;100269.34;5049003;28;20199;-57
2022/05/20 11:57:04;;;;;;;2.25;1.65;;;;;;;26.86;19.52;100265.03;5053229;28;20822;-57
2022/05/20 11:59:36;;;;;;;2.00;1.80;;;;;;;26.77;19.77;100260.94;5052886;28;20223;-58
2022/05/20 12:02:08;;;;;;;2.22;1.58;;;;;;;26.88;19.51;100256.16;5052686;28;20244;-58
2022/05/20 12:04:37;;;;;;;5.65;1.90;;;;;;;26.94;19.88;100255.06;5052829;28;20195;-57
2022/05/20 12:07:09;;;;;;;4.25;1.90;;;;;;;26.93;19.30;100255.97;5052860;28;20199;-57
2022/05/20 12:09:40;;;;;;;6.73;1.93;;;;;;;26.92;19.51;100255.09;5052831;28;20184;-57
2022/05/20 12:12:15;;;;;;;3.53;2.00;;;;;;;27.01;19.68;100247.75;5052686;28;20624;-58
2022/05/20 12:15:03;;;;;;;2.80;2.00;;;;;;;27.19;19.53;100236.50;5052004;28;20856;-58